createdAt,value
2022-11-06T00:01:32.315Z,0.70
2022-11-06T00:03:59.332Z,4.70
2022-11-06T00:06:44.912Z,0.60
2022-11-06T00:09:13.374Z,1.77
2022-11-06T00:11:41.271Z,11.02
2022-11-06T00:14:08.563Z,3.35
2022-11-06T00:16:38.565Z,1.35
2022-11-06T00:19:06.486Z,0.60
2022-11-06T00:21:33.527Z,0.95
2022-11-06T00:24:01.934Z,1.42
2022-11-06T00:26:30.491Z,0.98
2022-11-06T00:28:57.809Z,5.22
2022-11-06T00:31:31.795Z,3.40
2022-11-06T00:34:00.118Z,0.90
2022-11-06T00:36:30.275Z,2.25
2022-11-06T00:38:58.277Z,1.55
2022-11-06T00:41:26.096Z,2.28
2022-11-06T00:43:58.854Z,2.65
2022-11-06T00:46:26.549Z,3.25
2022-11-06T00:48:54.822Z,0.45
2022-11-06T00:51:25.508Z,0.40
2022-11-06T00:54:01.040Z,1.17
2022-11-06T00:56:28.836Z,1.45
2022-11-06T00:58:56.321Z,1.15
2022-11-06T01:01:24.486Z,1.63
2022-11-06T01:04:07.334Z,2.40
2022-11-06T01:09:05.900Z,0.45
2022-11-06T01:11:59.353Z,1.73
2022-11-06T01:14:22.973Z,1.02
2022-11-06T01:16:50.697Z,3.53
2022-11-06T01:19:19.911Z,1.65
2022-11-06T01:21:48.738Z,1.23
2022-11-06T01:24:21.621Z,3.35
2022-11-06T01:27:05.258Z,1.45
2022-11-06T01:29:35.916Z,7.65
2022-11-06T01:32:02.925Z,0.93
2022-11-06T01:34:29.954Z,1.48
2022-11-06T01:36:56.752Z,2.33
2022-11-06T01:39:23.500Z,3.25
2022-11-06T01:41:53.472Z,1.30
2022-11-06T01:44:35.597Z,2.72
2022-11-06T01:47:05.621Z,1.65
2022-11-06T01:49:37.580Z,4.32
2022-11-06T01:52:10.199Z,1.95
2022-11-06T01:57:05.911Z,0.82
2022-11-06T01:59:37.584Z,3.78
2022-11-06T02:02:04.871Z,1.77
2022-11-06T02:04:51.977Z,1.38
2022-11-06T02:07:19.965Z,3.03
2022-11-06T02:09:47.041Z,1.02
2022-11-06T02:12:38.611Z,1.33
2022-11-06T02:15:32.210Z,1.70
2022-11-06T02:18:15.728Z,6.28
2022-11-06T02:21:06.859Z,2.40
2022-11-06T02:23:39.453Z,1.40
2022-11-06T02:28:57.954Z,1.15
2022-11-06T02:31:30.340Z,3.55
2022-11-06T02:34:02.788Z,4.15
2022-11-06T17:06:56.312Z,6.75
2022-11-06T17:09:23.325Z,5.13
2022-11-06T17:11:54.495Z,3.47
2022-11-06T17:14:24.939Z,5.97
2022-11-06T17:16:54.602Z,8.40
2022-11-06T17:19:22.404Z,4.13
2022-11-06T17:21:50.921Z,5.50
2022-11-06T17:27:06.759Z,3.58
2022-11-06T17:29:36.382Z,5.72
2022-11-06T17:32:04.066Z,3.70
2022-11-06T17:34:30.876Z,6.45
2022-11-06T17:36:57.848Z,2.42
2022-11-06T17:39:24.676Z,4.75
2022-11-06T17:41:51.851Z,5.05
2022-11-06T17:44:18.711Z,4.68
2022-11-06T17:46:47.101Z,6.15
2022-11-06T17:49:17.880Z,3.65
2022-11-06T17:52:01.421Z,9.50
2022-11-06T17:54:32.318Z,5.22
2022-11-06T17:57:01.932Z,6.07
2022-11-06T17:59:29.086Z,4.43
2022-11-06T18:01:56.288Z,5.75
2022-11-06T18:04:25.179Z,11.90
2022-11-06T18:06:53.154Z,3.53
2022-11-06T18:09:21.365Z,10.23
2022-11-06T18:11:53.201Z,8.75
2022-11-06T18:14:21.075Z,3.20
2022-11-06T18:16:48.828Z,9.88
2022-11-06T18:19:18.549Z,6.80
2022-11-06T18:21:45.532Z,6.80
2022-11-06T18:24:12.770Z,5.85
2022-11-06T18:26:40.109Z,4.68
2022-11-06T18:29:08.313Z,3.10
2022-11-06T18:31:35.343Z,7.47
2022-11-06T18:34:02.613Z,5.97
2022-11-06T18:36:29.533Z,11.05
2022-11-06T18:38:56.411Z,14.10
2022-11-06T18:41:23.319Z,8.05
2022-11-06T18:43:54.805Z,8.15
2022-11-06T18:46:21.647Z,9.43
2022-11-06T18:48:48.442Z,9.50
2022-11-06T18:51:33.895Z,12.70
2022-11-06T18:54:07.974Z,9.00
2022-11-06T18:59:04.318Z,12.43
2022-11-06T19:01:31.324Z,6.28
2022-11-06T19:03:58.211Z,12.68
2022-11-06T19:06:25.221Z,8.70
2022-11-06T19:08:52.203Z,3.78
2022-11-06T19:11:19.375Z,12.70
2022-11-06T19:13:48.628Z,8.13
2022-11-06T19:16:18.564Z,7.70
2022-11-06T19:18:45.995Z,7.90
2022-11-06T19:21:13.453Z,7.30
2022-11-06T19:23:42.875Z,6.78
2022-11-06T19:29:00.231Z,9.27
2022-11-06T19:31:30.694Z,8.85
2022-11-06T19:34:02.280Z,11.45
2022-11-06T19:36:33.876Z,8.07
2022-11-06T19:39:01.328Z,8.70
2022-11-06T19:41:29.488Z,15.07
2022-11-06T19:43:56.339Z,10.43
2022-11-06T19:46:27.260Z,22.90
2022-11-06T19:48:57.808Z,9.82
2022-11-06T19:51:25.869Z,10.50
2022-11-06T19:53:56.005Z,10.02
2022-11-06T19:56:23.518Z,7.63
2022-11-06T19:58:51.235Z,13.73
2022-11-06T20:01:19.112Z,9.18
2022-11-06T20:03:46.369Z,16.10
2022-11-06T20:06:14.108Z,8.75
2022-11-06T20:08:41.132Z,8.70
2022-11-06T20:11:12.417Z,11.18
2022-11-06T20:13:40.261Z,12.45
2022-11-06T20:16:09.555Z,10.10
2022-11-06T20:18:36.541Z,6.38
2022-11-06T20:21:06.282Z,15.07
2022-11-06T20:23:33.416Z,6.15
2022-11-06T20:26:00.613Z,9.15
2022-11-06T20:28:27.661Z,10.73
2022-11-06T20:30:54.622Z,20.35
2022-11-06T20:33:21.513Z,10.73
2022-11-06T20:35:48.376Z,11.43
2022-11-06T20:38:15.323Z,11.45
2022-11-06T20:40:42.803Z,21.73
2022-11-06T20:43:10.210Z,10.80
2022-11-06T20:45:37.211Z,16.60
2022-11-06T20:48:08.136Z,6.85
2022-11-06T20:50:34.982Z,11.90
2022-11-06T20:53:01.892Z,15.35
2022-11-06T20:55:29.148Z,6.32
2022-11-06T20:57:56.012Z,10.43
2022-11-06T21:00:23.036Z,12.40
2022-11-06T21:02:50.121Z,8.32
2022-11-06T21:05:17.240Z,15.70
2022-11-06T21:07:44.050Z,17.75
2022-11-06T21:10:12.290Z,12.32
2022-11-06T21:12:39.156Z,23.63
2022-11-06T21:15:06.638Z,12.88
2022-11-06T21:17:33.590Z,14.95
2022-11-06T21:20:00.399Z,10.68
2022-11-06T21:22:27.331Z,8.77
2022-11-06T21:24:54.143Z,9.48
2022-11-06T21:27:20.969Z,7.43
2022-11-06T21:29:47.959Z,14.18
2022-11-06T21:32:15.045Z,8.23
2022-11-06T21:34:41.948Z,10.75
2022-11-06T21:37:08.962Z,12.18
2022-11-06T21:39:36.700Z,10.15
2022-11-06T21:42:06.144Z,5.72
2022-11-06T21:44:33.002Z,7.00
2022-11-06T21:46:59.816Z,7.03
2022-11-06T21:49:26.641Z,10.80
2022-11-06T21:51:54.216Z,4.85
2022-11-06T21:54:39.456Z,9.60
2022-11-06T21:57:06.272Z,8.90
2022-11-06T21:59:36.359Z,10.07
2022-11-06T22:02:07.290Z,12.82
2022-11-06T22:04:34.169Z,7.40
2022-11-06T22:07:00.958Z,9.00
2022-11-06T22:09:27.828Z,7.95
2022-11-06T22:11:54.649Z,30.05
2022-11-06T22:14:21.633Z,8.60
2022-11-06T22:16:48.518Z,12.68
2022-11-06T22:19:17.607Z,10.20
2022-11-06T22:21:44.534Z,9.30
2022-11-06T22:24:13.112Z,14.48
2022-11-06T22:26:40.526Z,10.98
2022-11-06T22:29:12.744Z,12.73
2022-11-06T22:31:39.867Z,8.45
2022-11-06T22:34:06.844Z,9.60
2022-11-06T22:36:33.737Z,7.20
2022-11-06T22:39:04.607Z,9.52
2022-11-06T22:41:31.431Z,12.95
2022-11-06T22:43:59.592Z,12.63
2022-11-06T22:46:27.521Z,9.75
2022-11-06T22:48:57.451Z,9.55
2022-11-06T22:51:29.741Z,11.40
2022-11-06T22:53:57.365Z,11.32
2022-11-06T22:56:25.916Z,8.38
2022-11-06T22:58:57.675Z,11.45
2022-11-06T23:01:26.744Z,11.00
2022-11-06T23:03:57.847Z,12.40
2022-11-06T23:06:26.153Z,10.25
2022-11-06T23:08:53.153Z,10.93
2022-11-06T23:11:20.980Z,20.17
2022-11-06T23:13:47.865Z,14.02
2022-11-06T23:16:17.747Z,18.33
2022-11-06T23:18:44.621Z,9.52
2022-11-06T23:21:16.159Z,14.02
2022-11-06T23:23:44.064Z,16.33
2022-11-06T23:26:12.145Z,12.00
2022-11-06T23:28:38.947Z,10.48
2022-11-06T23:31:10.730Z,15.35
2022-11-06T23:33:37.998Z,10.13
2022-11-06T23:36:15.834Z,13.18
2022-11-06T23:38:43.930Z,17.48
2022-11-06T23:41:32.209Z,14.85
2022-11-06T23:43:59.538Z,12.98
2022-11-06T23:46:31.891Z,12.07
2022-11-06T23:48:59.441Z,22.35
2022-11-06T23:51:26.713Z,16.35
2022-11-06T23:53:54.863Z,16.02
2022-11-06T23:56:21.724Z,12.00
2022-11-06T23:58:48.572Z,13.85
